Terminal Aerodrome Forecast
Issued by NWS

Home | Current Version | Previous Version | Text Only | Print | Product List | Glossary On
Versions: 1 2 3 4 5 6 7 8 9 10 11 12 13 14 15 16 17 18
000
FTAK31 PAJN 250500
TAFAWG
TAF
PAWG 250524Z 2506/2606 14020G32KT 6SM -SHRA BR BKN035 OVC050
      WS020/18045KT
      TEMPO 2506/2509 4SM -RA BR SCT010 OVC020
     FM250900 19012G22KT 4SM -RA BR OVC015 WS020/22055KT
     FM251200 18010G20KT 4SM -RA BR OVC020 WS020/24035KT
     FM251500 19010KT 5SM -RA BR OVC025
     FM251800 14006KT 6SM -SHRA BR BKN030
     FM260300 14005KT P6SM -SHRA SCT015 BKN040
      AMD LTD TO CLD VIS AND WIND 2506/2515=

USA.gov is the U.S. government's official web portal to all federal, state and local government web resources and services.